createdAt,value
2023-01-07T00:02:59.773Z,9.70
2023-01-07T00:05:57.966Z,9.70
2023-01-07T00:08:25.579Z,9.70
2023-01-07T00:10:52.891Z,9.70
2023-01-07T00:13:20.198Z,9.70
2023-01-07T00:15:47.456Z,9.70
2023-01-07T00:18:14.776Z,9.70
2023-01-07T00:20:42.020Z,9.70
2023-01-07T00:23:09.302Z,9.70
2023-01-07T00:25:36.534Z,9.70
2023-01-07T00:28:03.941Z,9.70
2023-01-07T00:30:31.232Z,9.50
2023-01-07T00:33:04.382Z,9.50
2023-01-07T00:35:37.016Z,9.50
2023-01-07T00:38:05.324Z,9.50
2023-01-07T00:40:33.227Z,9.60
2023-01-07T00:43:06.989Z,9.60
2023-01-07T00:45:37.700Z,9.70
2023-01-07T00:48:05.886Z,9.70
2023-01-07T00:50:35.326Z,9.70
2023-01-07T00:53:03.017Z,9.80
2023-01-07T00:55:31.203Z,9.80
2023-01-07T00:57:59.078Z,9.90
2023-01-07T01:00:27.275Z,9.90
2023-01-07T01:02:54.636Z,9.90
2023-01-07T01:05:22.436Z,9.90
2023-01-07T01:07:49.848Z,9.80
2023-01-07T01:10:19.295Z,9.80
2023-01-07T01:12:49.324Z,9.90
2023-01-07T01:15:17.284Z,9.80
2023-01-07T01:17:44.554Z,9.80
2023-01-07T01:20:14.932Z,9.70
2023-01-07T01:22:42.901Z,9.70
2023-01-07T01:25:10.990Z,9.60
2023-01-07T01:27:38.808Z,9.60
2023-01-07T01:30:07.611Z,9.60
2023-01-07T01:32:37.718Z,9.60
2023-01-07T01:35:05.448Z,9.60
2023-01-07T01:37:32.750Z,9.70
2023-01-07T01:40:03.850Z,9.70
2023-01-07T01:42:31.744Z,9.80
2023-01-07T01:45:01.100Z,9.70
2023-01-07T01:47:53.632Z,9.60
2023-01-07T01:50:34.553Z,9.60
2023-01-07T01:53:09.945Z,9.70
2023-01-07T01:56:07.204Z,9.60
2023-01-07T01:58:40.068Z,9.50
2023-01-07T02:01:07.974Z,9.50
2023-01-07T02:03:37.751Z,9.50
2023-01-07T02:06:06.139Z,9.50
2023-01-07T02:08:33.573Z,9.60
2023-01-07T02:11:28.680Z,9.60
2023-01-07T02:13:55.904Z,9.70
2023-01-07T02:16:31.083Z,9.60
2023-01-07T02:19:23.341Z,9.60
2023-01-07T02:22:08.996Z,9.60
2023-01-07T02:25:07.682Z,9.50
2023-01-07T02:27:56.358Z,9.50
2023-01-07T02:30:45.970Z,9.40
2023-01-07T02:33:35.726Z,9.40
2023-01-07T02:36:11.987Z,9.40
2023-01-07T02:38:51.196Z,9.40
2023-01-07T02:41:49.585Z,9.60
2023-01-07T02:44:44.135Z,9.60
2023-01-07T02:47:20.943Z,9.60
2023-01-07T02:49:48.515Z,9.50
2023-01-07T02:52:24.458Z,9.40
2023-01-07T02:55:06.063Z,9.40
2023-01-07T02:58:03.946Z,9.40
2023-01-07T03:00:46.500Z,9.40
2023-01-07T03:03:50.673Z,9.40
2023-01-07T03:06:39.910Z,9.40
2023-01-07T03:09:17.414Z,9.50
2023-01-07T03:11:59.854Z,9.50
2023-01-07T03:14:35.621Z,9.40
2023-01-07T03:17:06.823Z,9.40
2023-01-07T03:19:38.169Z,9.50
2023-01-07T03:22:09.078Z,9.40
2023-01-07T03:24:36.507Z,9.40
2023-01-07T03:27:06.196Z,9.40
2023-01-07T03:29:35.729Z,9.40
2023-01-07T03:32:15.374Z,9.30
2023-01-07T03:34:44.010Z,9.30
2023-01-07T03:37:15.043Z,9.30
2023-01-07T03:39:45.696Z,9.30
2023-01-07T03:42:33.572Z,9.30
2023-01-07T03:45:01.079Z,9.40
2023-01-07T03:47:31.326Z,9.50
2023-01-07T03:49:58.720Z,9.40
2023-01-07T03:52:26.205Z,9.30
2023-01-07T03:54:53.751Z,9.40
2023-01-07T03:57:22.079Z,9.30
2023-01-07T03:59:49.374Z,9.20
2023-01-07T04:02:16.876Z,9.30
2023-01-07T04:04:44.252Z,9.30
2023-01-07T04:07:13.615Z,9.30
2023-01-07T04:09:41.267Z,9.20
2023-01-07T04:12:09.572Z,9.20
2023-01-07T04:14:36.879Z,9.20
2023-01-07T04:17:04.114Z,9.20
2023-01-07T04:19:31.799Z,9.30
2023-01-07T04:21:59.269Z,9.30
2023-01-07T04:24:26.640Z,9.30
2023-01-07T04:26:54.125Z,9.30
2023-01-07T04:29:23.290Z,9.20
2023-01-07T04:31:50.648Z,9.10
2023-01-07T04:34:18.195Z,9.10
2023-01-07T04:36:45.420Z,9.00
2023-01-07T04:39:13.339Z,9.00
2023-01-07T04:41:40.799Z,9.00
2023-01-07T04:44:08.993Z,9.00
2023-01-07T04:46:36.370Z,9.10
2023-01-07T04:49:04.211Z,9.10
2023-01-07T04:51:31.621Z,9.20
2023-01-07T04:53:59.439Z,9.20
2023-01-07T04:56:27.188Z,9.20
2023-01-07T04:58:55.063Z,9.20
2023-01-07T05:01:23.150Z,9.10
2023-01-07T05:03:50.634Z,9.10
2023-01-07T05:06:18.900Z,9.10
2023-01-07T05:08:46.583Z,9.10
2023-01-07T05:11:15.441Z,9.10
2023-01-07T05:13:44.268Z,9.10
2023-01-07T05:16:11.648Z,9.10
2023-01-07T05:18:40.901Z,9.10
2023-01-07T05:21:10.470Z,9.10
2023-01-07T05:23:38.876Z,9.10
2023-01-07T05:26:06.396Z,9.20
2023-01-07T05:28:33.788Z,9.20
2023-01-07T05:31:02.605Z,9.30
2023-01-07T05:33:31.591Z,9.20
2023-01-07T05:35:58.920Z,9.20
2023-01-07T05:38:26.146Z,9.20
2023-01-07T05:40:53.463Z,9.10
2023-01-07T05:43:24.891Z,9.20
2023-01-07T05:45:52.183Z,9.10
2023-01-07T05:48:19.467Z,9.10
2023-01-07T05:50:46.751Z,9.00
2023-01-07T05:53:14.076Z,9.00
2023-01-07T05:55:41.378Z,9.10
2023-01-07T05:58:08.849Z,9.20
2023-01-07T06:00:36.984Z,9.20
2023-01-07T06:03:05.599Z,9.20
2023-01-07T06:05:33.049Z,9.10
2023-01-07T06:08:00.408Z,9.00
2023-01-07T06:10:27.648Z,9.00
2023-01-07T06:12:54.953Z,9.10
2023-01-07T06:15:22.215Z,9.10
2023-01-07T06:17:49.443Z,9.20
2023-01-07T06:20:16.818Z,9.10
2023-01-07T06:22:44.166Z,9.00
2023-01-07T06:25:12.885Z,9.00
2023-01-07T06:27:43.164Z,9.00
2023-01-07T06:30:11.651Z,9.00
2023-01-07T06:32:43.480Z,9.00
2023-01-07T06:35:11.630Z,8.90
2023-01-07T06:37:39.341Z,8.90
2023-01-07T06:40:07.813Z,8.90
2023-01-07T06:42:35.217Z,9.00
2023-01-07T06:45:02.522Z,9.00
2023-01-07T06:47:29.790Z,9.00
2023-01-07T06:49:57.066Z,9.00
2023-01-07T06:52:24.355Z,9.00
2023-01-07T06:54:51.586Z,9.00
2023-01-07T06:57:18.961Z,9.00
2023-01-07T06:59:46.262Z,9.10
2023-01-07T07:02:21.637Z,9.10
2023-01-07T07:04:49.477Z,9.20
2023-01-07T07:07:17.674Z,9.20
2023-01-07T07:09:45.486Z,9.20
2023-01-07T07:12:13.440Z,9.20
2023-01-07T07:14:40.892Z,9.10
2023-01-07T07:17:08.438Z,9.10
2023-01-07T07:19:35.722Z,9.20
2023-01-07T07:22:04.707Z,9.30
2023-01-07T07:24:32.111Z,9.30
2023-01-07T07:27:00.212Z,9.30
2023-01-07T07:29:27.591Z,9.30
2023-01-07T07:31:54.864Z,9.30
2023-01-07T07:34:22.186Z,9.30
2023-01-07T07:36:49.545Z,9.30
2023-01-07T07:39:16.912Z,9.30
2023-01-07T07:41:44.286Z,9.20
2023-01-07T07:44:11.558Z,9.10
2023-01-07T07:46:40.715Z,9.10
2023-01-07T07:49:08.600Z,9.30
2023-01-07T07:51:35.927Z,9.30
2023-01-07T07:54:03.391Z,9.30
2023-01-07T07:56:32.000Z,9.30
2023-01-07T07:58:59.255Z,9.20
2023-01-07T08:01:27.450Z,9.20
2023-01-07T08:03:54.848Z,9.30
2023-01-07T08:06:22.086Z,9.30
2023-01-07T08:08:49.384Z,9.20
2023-01-07T08:11:16.635Z,9.10
2023-01-07T08:13:44.494Z,9.10
2023-01-07T08:16:11.783Z,9.10
2023-01-07T08:18:39.930Z,9.10
2023-01-07T08:21:07.267Z,9.00
2023-01-07T08:23:34.890Z,9.00
2023-01-07T08:26:03.363Z,8.90
2023-01-07T08:28:31.898Z,9.00
2023-01-07T08:31:06.336Z,9.10
2023-01-07T08:33:37.598Z,9.20
2023-01-07T08:36:09.311Z,9.20
2023-01-07T08:38:39.541Z,9.20
2023-01-07T08:41:06.870Z,9.20
2023-01-07T08:43:35.341Z,9.20
2023-01-07T08:46:02.818Z,9.20
2023-01-07T08:48:30.049Z,9.30
2023-01-07T08:50:57.282Z,9.30
2023-01-07T08:53:25.399Z,9.30
2023-01-07T08:55:52.781Z,9.30
2023-01-07T08:58:20.061Z,9.30
2023-01-07T09:00:47.308Z,9.30
2023-01-07T09:03:14.582Z,9.30
2023-01-07T09:05:41.824Z,9.30
2023-01-07T09:08:09.171Z,9.20
2023-01-07T09:10:36.429Z,9.30
2023-01-07T09:13:03.710Z,9.30
2023-01-07T09:15:31.032Z,9.40
2023-01-07T09:17:58.294Z,9.40
2023-01-07T09:20:25.531Z,9.40
2023-01-07T09:22:52.806Z,9.50
2023-01-07T09:25:20.159Z,9.50
2023-01-07T09:27:47.515Z,9.50
2023-01-07T09:30:15.184Z,9.50
2023-01-07T09:32:43.305Z,9.50
2023-01-07T09:35:11.087Z,9.40
2023-01-07T09:37:38.626Z,9.10
2023-01-07T09:40:07.839Z,9.20
2023-01-07T09:42:37.779Z,9.40
2023-01-07T09:45:10.925Z,9.40
2023-01-07T09:47:43.295Z,9.50
2023-01-07T09:50:16.939Z,9.50
2023-01-07T09:52:50.187Z,9.40
2023-01-07T09:55:39.229Z,9.40
2023-01-07T09:58:26.932Z,9.50
2023-01-07T10:01:00.370Z,9.60
2023-01-07T10:03:51.626Z,9.60
2023-01-07T10:06:43.130Z,9.50
2023-01-07T10:09:30.402Z,9.50
2023-01-07T10:12:12.320Z,9.70
2023-01-07T10:14:51.996Z,9.70
2023-01-07T10:17:54.530Z,9.60
2023-01-07T10:20:37.556Z,9.40
2023-01-07T10:23:14.226Z,9.50
2023-01-07T10:25:47.731Z,9.50
2023-01-07T10:28:25.167Z,9.50
2023-01-07T10:30:52.521Z,9.60
2023-01-07T10:33:26.823Z,9.70
2023-01-07T10:36:03.714Z,9.80
2023-01-07T10:38:35.265Z,9.90
2023-01-07T10:41:09.141Z,10.10
2023-01-07T10:44:03.423Z,10.10
2023-01-07T10:47:01.843Z,10.10
2023-01-07T10:50:17.592Z,10.20
2023-01-07T10:52:57.799Z,10.20
2023-01-07T10:55:43.787Z,10.10
2023-01-07T10:58:11.983Z,10.10
2023-01-07T11:00:40.546Z,10.30
2023-01-07T11:03:21.150Z,10.40
2023-01-07T11:05:59.468Z,10.30
2023-01-07T11:08:34.144Z,10.30
2023-01-07T11:11:03.461Z,10.30
2023-01-07T11:13:33.675Z,10.30
2023-01-07T11:16:22.285Z,10.40
2023-01-07T11:18:55.114Z,10.30
2023-01-07T11:21:42.756Z,10.30
2023-01-07T11:24:31.709Z,10.30
2023-01-07T11:27:14.105Z,10.40
2023-01-07T11:29:45.829Z,10.50
2023-01-07T11:32:26.182Z,10.60
2023-01-07T11:34:56.474Z,10.40
2023-01-07T11:37:38.721Z,10.50
2023-01-07T11:40:15.238Z,10.50
2023-01-07T11:42:53.833Z,10.50
2023-01-07T11:45:24.017Z,10.50
2023-01-07T11:48:25.039Z,10.50
2023-01-07T11:51:01.663Z,10.50
2023-01-07T11:53:43.859Z,10.40
2023-01-07T11:56:19.789Z,10.10
2023-01-07T11:58:51.975Z,10.20
2023-01-07T12:01:22.688Z,10.20
2023-01-07T12:03:53.286Z,10.30
2023-01-07T12:06:30.325Z,10.40
2023-01-07T12:09:26.027Z,10.40
2023-01-07T12:11:56.482Z,10.40
2023-01-07T12:14:37.738Z,10.50
2023-01-07T12:17:21.248Z,10.50
2023-01-07T12:20:25.034Z,10.60
2023-01-07T12:23:21.277Z,10.50
2023-01-07T12:25:54.651Z,10.50
2023-01-07T12:28:43.828Z,10.40
2023-01-07T12:31:39.804Z,10.30
2023-01-07T12:34:16.055Z,10.30
2023-01-07T12:36:48.085Z,10.40
2023-01-07T12:39:35.287Z,10.30
2023-01-07T12:42:15.831Z,10.40
2023-01-07T12:44:54.338Z,10.40
2023-01-07T12:47:31.249Z,10.40
2023-01-07T12:50:22.966Z,10.30
2023-01-07T12:52:57.196Z,10.30
2023-01-07T12:55:35.831Z,10.20
2023-01-07T12:58:18.127Z,10.30
2023-01-07T13:01:22.119Z,10.30
2023-01-07T13:04:05.346Z,10.30
2023-01-07T13:06:44.982Z,10.30
2023-01-07T13:09:29.837Z,10.30
2023-01-07T13:12:42.048Z,10.30
2023-01-07T13:15:20.767Z,10.20
2023-01-07T13:17:49.843Z,10.30
2023-01-07T13:20:22.610Z,10.20
2023-01-07T13:22:54.990Z,10.20
2023-01-07T13:25:25.108Z,10.20
2023-01-07T13:28:10.866Z,10.20
2023-01-07T13:30:59.979Z,10.10
2023-01-07T13:33:43.858Z,10.10
2023-01-07T13:36:34.502Z,10.10
2023-01-07T13:39:07.584Z,10.10
2023-01-07T13:41:56.368Z,10.00
2023-01-07T13:44:41.597Z,10.00
2023-01-07T13:47:13.128Z,9.90
2023-01-07T13:49:56.964Z,9.90
2023-01-07T13:52:27.959Z,9.90
2023-01-07T13:54:56.911Z,9.90
2023-01-07T13:57:24.087Z,9.90
2023-01-07T13:59:53.819Z,9.90
2023-01-07T14:02:29.384Z,9.90
2023-01-07T14:05:12.185Z,10.00
2023-01-07T14:07:50.744Z,9.80
2023-01-07T14:10:36.007Z,9.80
2023-01-07T14:13:27.521Z,9.80
2023-01-07T14:16:23.821Z,9.80
2023-01-07T14:19:07.166Z,9.70
2023-01-07T14:21:44.834Z,9.80
2023-01-07T14:24:33.080Z,9.90
2023-01-07T14:27:12.129Z,9.90
2023-01-07T14:29:46.240Z,9.90
2023-01-07T14:32:27.494Z,9.90
2023-01-07T14:35:11.682Z,9.90
2023-01-07T14:37:46.920Z,9.90
2023-01-07T14:40:46.343Z,9.90
2023-01-07T14:43:55.911Z,10.00
2023-01-07T14:46:23.307Z,10.00
2023-01-07T14:49:28.228Z,9.90
2023-01-07T14:52:10.282Z,10.00
2023-01-07T14:55:11.692Z,9.90
2023-01-07T14:58:11.162Z,10.00
2023-01-07T15:00:59.323Z,10.00
2023-01-07T15:03:35.745Z,10.00
2023-01-07T15:06:11.090Z,9.90
2023-01-07T15:09:31.491Z,9.90
2023-01-07T15:12:23.010Z,9.90
2023-01-07T15:15:24.025Z,9.90
2023-01-07T15:17:51.390Z,9.90
2023-01-07T15:20:19.099Z,9.90
2023-01-07T15:22:56.654Z,9.80
2023-01-07T15:25:39.758Z,9.70
2023-01-07T15:28:11.816Z,9.70
2023-01-07T15:30:50.649Z,9.70
2023-01-07T15:33:45.889Z,9.80
2023-01-07T15:36:15.616Z,9.70
2023-01-07T15:38:49.508Z,9.80
2023-01-07T15:41:23.845Z,9.80
2023-01-07T15:43:52.021Z,9.70
2023-01-07T15:46:21.225Z,9.70
2023-01-07T15:49:05.752Z,9.70
2023-01-07T15:52:05.462Z,9.70
2023-01-07T15:54:35.545Z,9.70
2023-01-07T15:57:05.926Z,9.80
2023-01-07T15:59:36.047Z,9.70
2023-01-07T16:02:23.028Z,9.60
2023-01-07T16:04:53.317Z,9.40
2023-01-07T16:07:24.041Z,9.40
2023-01-07T16:09:52.328Z,9.40
2023-01-07T16:12:24.765Z,9.50
2023-01-07T16:14:52.071Z,9.60
2023-01-07T16:17:19.832Z,9.60
2023-01-07T16:19:47.545Z,9.60
2023-01-07T16:22:21.523Z,9.60
2023-01-07T16:24:52.295Z,9.60
2023-01-07T16:27:28.836Z,9.60
2023-01-07T16:30:02.786Z,9.60
2023-01-07T16:32:31.006Z,9.70
2023-01-07T16:35:06.987Z,9.70
2023-01-07T16:37:39.815Z,9.60
2023-01-07T16:40:30.676Z,9.70
2023-01-07T16:43:00.765Z,9.70
2023-01-07T16:45:32.587Z,9.70
2023-01-07T16:48:14.090Z,9.60
2023-01-07T16:50:44.229Z,9.70
2023-01-07T16:53:27.116Z,9.60
2023-01-07T16:56:02.373Z,9.60
2023-01-07T16:58:47.935Z,9.60
2023-01-07T17:01:30.187Z,9.70
2023-01-07T17:04:00.643Z,9.60
2023-01-07T17:06:40.708Z,9.60
2023-01-07T17:09:26.883Z,9.60
2023-01-07T17:11:56.179Z,9.60
2023-01-07T17:14:39.918Z,9.50
2023-01-07T17:17:33.995Z,9.50
2023-01-07T17:20:22.946Z,9.50
2023-01-07T17:22:51.624Z,9.50
2023-01-07T17:25:24.612Z,9.50
2023-01-07T17:27:59.870Z,9.50
2023-01-07T17:30:37.693Z,9.50
2023-01-07T17:33:05.536Z,9.40
2023-01-07T17:35:35.945Z,9.50
2023-01-07T17:38:12.515Z,9.40
2023-01-07T17:40:43.644Z,9.30
2023-01-07T17:43:35.851Z,9.20
2023-01-07T17:46:12.993Z,9.20
2023-01-07T17:48:43.679Z,9.30
2023-01-07T17:51:12.161Z,9.20
2023-01-07T17:53:45.743Z,9.30
2023-01-07T17:56:13.669Z,9.30
2023-01-07T17:58:41.722Z,9.20
2023-01-07T18:01:13.189Z,9.20
2023-01-07T18:03:41.366Z,9.20
2023-01-07T18:06:28.008Z,9.20
2023-01-07T18:08:57.169Z,9.10
2023-01-07T18:11:47.614Z,9.20
2023-01-07T18:14:15.600Z,9.10
2023-01-07T18:16:44.111Z,9.10
2023-01-07T18:19:16.928Z,9.10
2023-01-07T18:21:45.026Z,9.20
2023-01-07T18:24:21.423Z,9.10
2023-01-07T18:26:53.280Z,9.10
2023-01-07T18:29:21.765Z,9.10
2023-01-07T18:31:51.980Z,9.10
2023-01-07T18:34:19.794Z,9.10
2023-01-07T18:36:49.107Z,9.10
2023-01-07T18:39:19.966Z,9.10
2023-01-07T18:41:52.606Z,9.20
2023-01-07T18:44:23.385Z,9.20
2023-01-07T18:47:22.126Z,9.20
2023-01-07T18:49:52.669Z,9.20
2023-01-07T18:52:21.027Z,9.10
2023-01-07T18:54:49.133Z,9.10
2023-01-07T18:57:19.175Z,9.10
2023-01-07T18:59:46.933Z,9.10
2023-01-07T19:02:23.574Z,9.10
2023-01-07T19:04:51.482Z,9.10
2023-01-07T19:07:19.713Z,9.10
2023-01-07T19:09:48.346Z,9.10
2023-01-07T19:12:15.753Z,9.10
2023-01-07T19:14:43.033Z,9.10
2023-01-07T19:17:10.812Z,9.10
2023-01-07T19:19:47.986Z,9.20
2023-01-07T19:22:16.702Z,9.20
2023-01-07T19:24:44.380Z,9.20
2023-01-07T19:27:12.172Z,9.20
2023-01-07T19:29:39.470Z,9.20
2023-01-07T19:32:06.958Z,9.20
2023-01-07T19:34:34.342Z,9.20
2023-01-07T19:37:01.608Z,9.20
2023-01-07T19:39:28.918Z,9.10
2023-01-07T19:41:56.276Z,9.10
2023-01-07T19:44:23.564Z,9.20
2023-01-07T19:46:50.874Z,9.20
2023-01-07T19:49:18.312Z,9.10
2023-01-07T19:51:46.037Z,9.20
2023-01-07T19:54:15.923Z,9.20
2023-01-07T19:56:43.774Z,9.20
2023-01-07T19:59:11.532Z,9.10
2023-01-07T20:01:39.460Z,9.10
2023-01-07T20:04:08.169Z,9.10
2023-01-07T20:06:41.176Z,9.10
2023-01-07T20:09:12.323Z,9.20
2023-01-07T20:11:40.525Z,9.10
2023-01-07T20:14:08.002Z,9.20
2023-01-07T20:16:36.979Z,9.20
2023-01-07T20:19:05.785Z,9.20
2023-01-07T20:21:33.513Z,9.20
2023-01-07T20:24:00.973Z,9.20
2023-01-07T20:26:31.098Z,9.20
2023-01-07T20:28:59.785Z,9.10
2023-01-07T20:31:28.738Z,9.10
2023-01-07T20:33:56.124Z,9.10
2023-01-07T20:36:26.024Z,9.10
2023-01-07T20:38:53.904Z,9.10
2023-01-07T20:41:27.119Z,9.10
2023-01-07T20:43:57.214Z,9.10
2023-01-07T20:46:25.947Z,9.10
2023-01-07T20:48:53.299Z,9.10
2023-01-07T20:51:21.024Z,9.10
2023-01-07T20:53:48.454Z,9.10
2023-01-07T20:56:18.892Z,9.10
2023-01-07T20:58:47.227Z,9.10
2023-01-07T21:01:17.063Z,9.10
2023-01-07T21:03:45.795Z,9.10
2023-01-07T21:06:15.556Z,9.10
2023-01-07T21:08:43.450Z,9.20
2023-01-07T21:11:12.980Z,9.10
2023-01-07T21:13:40.408Z,9.20
2023-01-07T21:16:08.183Z,9.20
2023-01-07T21:18:35.987Z,9.20
2023-01-07T21:21:10.363Z,9.10
2023-01-07T21:23:37.731Z,9.10
2023-01-07T21:26:06.920Z,9.10
2023-01-07T21:28:35.201Z,9.10
2023-01-07T21:31:05.969Z,9.10
2023-01-07T21:33:33.425Z,9.10
2023-01-07T21:36:00.731Z,9.00
2023-01-07T21:38:27.987Z,9.00
2023-01-07T21:40:55.221Z,9.00
2023-01-07T21:43:22.504Z,9.00
2023-01-07T21:45:49.859Z,9.00
2023-01-07T21:48:17.244Z,8.90
2023-01-07T21:50:44.509Z,8.90
2023-01-07T21:53:12.831Z,8.90
2023-01-07T21:55:40.076Z,8.90
2023-01-07T21:58:08.000Z,9.00
2023-01-07T22:00:35.349Z,8.90
2023-01-07T22:03:02.775Z,8.90
2023-01-07T22:05:30.196Z,8.90
2023-01-07T22:07:57.516Z,8.90
2023-01-07T22:10:24.764Z,8.90
2023-01-07T22:12:52.107Z,9.00
2023-01-07T22:15:19.538Z,9.00
2023-01-07T22:17:46.847Z,8.90
2023-01-07T22:20:14.114Z,9.00
2023-01-07T22:22:41.736Z,9.00
2023-01-07T22:25:09.547Z,8.90
2023-01-07T22:27:36.800Z,8.90
2023-01-07T22:30:04.489Z,9.00
2023-01-07T22:32:31.833Z,9.00
2023-01-07T22:34:59.061Z,9.00
2023-01-07T22:37:26.784Z,9.00
2023-01-07T22:39:58.389Z,9.00
2023-01-07T22:42:46.605Z,9.10
2023-01-07T22:45:17.828Z,9.00
2023-01-07T22:47:48.404Z,9.00
2023-01-07T22:50:17.007Z,9.00
2023-01-07T22:52:44.667Z,9.10
2023-01-07T22:55:12.715Z,9.10
2023-01-07T22:57:40.759Z,9.10
2023-01-07T23:00:16.319Z,9.10
2023-01-07T23:02:43.663Z,9.10
2023-01-07T23:05:10.982Z,9.00
2023-01-07T23:07:38.212Z,9.00
2023-01-07T23:10:05.953Z,8.90
2023-01-07T23:12:33.183Z,8.90
2023-01-07T23:15:00.403Z,8.90
2023-01-07T23:17:29.095Z,8.90
2023-01-07T23:19:56.320Z,9.00
2023-01-07T23:22:23.621Z,9.00
2023-01-07T23:24:50.839Z,9.00
2023-01-07T23:27:18.133Z,9.00
2023-01-07T23:29:45.488Z,9.00
2023-01-07T23:32:12.822Z,9.00
2023-01-07T23:34:40.194Z,9.00
2023-01-07T23:37:07.718Z,8.90
2023-01-07T23:39:34.988Z,8.90
2023-01-07T23:42:02.196Z,8.90
2023-01-07T23:44:29.429Z,8.90
2023-01-07T23:46:56.838Z,8.90
2023-01-07T23:49:24.094Z,8.90
2023-01-07T23:51:51.400Z,8.90
2023-01-07T23:54:18.649Z,8.90
2023-01-07T23:56:45.855Z,8.90
2023-01-07T23:59:13.201Z,8.90
